createdAt,value
2022-08-10T00:02:14.070Z,90.33
2022-08-10T00:05:11.097Z,90.88
2022-08-10T00:08:07.886Z,90.06
2022-08-10T00:11:05.186Z,90.90
2022-08-10T00:14:13.408Z,93.61
2022-08-10T00:17:10.058Z,94.32
2022-08-10T00:20:08.503Z,93.20
2022-08-10T00:23:06.147Z,93.01
2022-08-10T00:26:03.354Z,94.01
2022-08-10T00:29:00.273Z,94.21
2022-08-10T00:31:59.083Z,93.12
2022-08-10T00:34:56.970Z,94.48
2022-08-10T00:37:57.583Z,94.88
2022-08-10T00:40:55.108Z,92.67
2022-08-10T00:43:52.260Z,91.14
2022-08-10T00:46:49.085Z,92.00
2022-08-10T00:49:47.125Z,94.63
2022-08-10T00:52:44.523Z,96.29
2022-08-10T00:56:39.807Z,95.31
2022-08-10T00:58:59.210Z,94.53
2022-08-10T01:02:08.314Z,92.65
2022-08-10T01:05:09.903Z,91.88
2022-08-10T01:08:57.694Z,94.02
2022-08-10T01:12:39.092Z,96.13
2022-08-10T01:15:37.945Z,94.88
2022-08-10T01:18:56.389Z,93.47
2022-08-10T01:22:15.073Z,92.11
2022-08-10T01:25:36.101Z,92.02
2022-08-10T01:29:30.753Z,91.87
2022-08-10T01:32:37.201Z,92.82
2022-08-10T01:35:40.495Z,95.38
2022-08-10T01:38:40.423Z,96.51
2022-08-10T01:41:46.426Z,96.22
2022-08-10T01:44:48.168Z,96.11
2022-08-10T01:48:04.436Z,95.46
2022-08-10T01:51:18.925Z,95.24
2022-08-10T01:54:22.740Z,94.11
2022-08-10T01:57:20.649Z,95.17
2022-08-10T02:00:18.290Z,96.31
2022-08-10T02:03:15.367Z,94.82
2022-08-10T02:06:12.270Z,93.87
2022-08-10T02:09:09.394Z,94.63
2022-08-10T02:12:08.760Z,94.61
2022-08-10T02:15:08.680Z,94.41
2022-08-10T02:18:06.338Z,93.55
2022-08-10T02:21:04.779Z,94.18
2022-08-10T02:24:02.118Z,96.09
2022-08-10T02:27:00.437Z,97.33
2022-08-10T02:30:00.247Z,98.46
2022-08-10T02:32:58.475Z,98.77
2022-08-10T02:35:57.348Z,100.00
2022-08-10T02:38:58.250Z,100.00
2022-08-10T02:45:03.125Z,100.00
2022-08-10T02:45:42.797Z,100.00
2022-08-10T02:48:46.787Z,100.00
2022-08-10T02:52:21.373Z,98.89
2022-08-10T02:55:41.035Z,98.42
2022-08-10T02:58:43.147Z,97.24
2022-08-10T03:01:45.043Z,95.17
2022-08-10T03:04:55.706Z,95.96
2022-08-10T03:08:03.706Z,97.27
2022-08-10T03:11:03.237Z,98.28
2022-08-10T03:14:00.345Z,97.22
2022-08-10T03:16:57.596Z,96.83
2022-08-10T03:20:33.659Z,97.33
2022-08-10T03:23:15.348Z,97.18
2022-08-10T03:26:12.766Z,97.50
2022-08-10T03:29:11.497Z,95.50
2022-08-10T03:32:08.263Z,93.20
2022-08-10T03:35:06.185Z,94.42
2022-08-10T03:38:03.519Z,96.39
2022-08-10T03:41:02.490Z,94.46
2022-08-10T03:43:59.869Z,95.70
2022-08-10T03:46:59.826Z,94.93
2022-08-10T03:49:57.453Z,93.61
2022-08-10T03:53:00.525Z,92.56
2022-08-10T03:56:30.054Z,91.18
2022-08-10T03:59:16.477Z,93.72
2022-08-10T04:02:44.856Z,93.78
2022-08-10T04:05:38.454Z,93.77
2022-08-10T04:08:40.126Z,96.32
2022-08-10T04:11:37.223Z,94.82
2022-08-10T04:14:49.531Z,93.87
2022-08-10T04:18:04.013Z,94.14
2022-08-10T04:21:07.354Z,93.93
2022-08-10T04:24:04.910Z,94.98
2022-08-10T04:27:02.572Z,94.24
2022-08-10T04:29:59.630Z,94.92
2022-08-10T04:32:56.942Z,96.58
2022-08-10T04:35:54.058Z,95.50
2022-08-10T04:38:52.407Z,94.93
2022-08-10T04:41:49.490Z,95.32
2022-08-10T04:44:46.273Z,97.02
2022-08-10T04:47:58.045Z,97.52
2022-08-10T04:51:00.822Z,100.00
2022-08-10T04:54:05.112Z,100.00
2022-08-10T04:57:04.713Z,100.00
2022-08-10T05:00:01.929Z,100.00
2022-08-10T05:03:04.470Z,100.00
2022-08-10T05:06:01.490Z,100.00
2022-08-10T05:08:59.321Z,100.00
2022-08-10T05:11:56.542Z,99.79
2022-08-10T05:14:53.860Z,99.80
2022-08-10T05:18:08.173Z,100.00
2022-08-10T05:21:06.494Z,99.74
2022-08-10T05:24:04.599Z,99.67
2022-08-10T05:27:10.079Z,98.93
2022-08-10T05:30:08.698Z,97.02
2022-08-10T05:33:08.807Z,96.46
2022-08-10T05:36:06.791Z,95.13
2022-08-10T05:39:03.443Z,94.35
2022-08-10T05:42:01.168Z,94.96
2022-08-10T05:44:58.531Z,96.24
2022-08-10T05:48:56.406Z,95.83
2022-08-10T05:51:12.343Z,94.75
2022-08-10T05:54:15.067Z,93.99
2022-08-10T05:57:12.797Z,93.38
2022-08-10T06:00:37.398Z,93.17
2022-08-10T06:03:32.037Z,93.08
2022-08-10T06:06:30.222Z,92.97
2022-08-10T06:09:27.733Z,92.44
2022-08-10T06:12:29.214Z,93.69
2022-08-10T06:15:50.508Z,91.55
2022-08-10T06:18:43.690Z,90.34
2022-08-10T06:21:40.441Z,89.89
2022-08-10T06:25:32.057Z,90.89
2022-08-10T06:28:16.142Z,90.04
2022-08-10T06:31:13.376Z,89.56
2022-08-10T06:34:11.038Z,89.56
2022-08-10T06:37:08.889Z,90.39
2022-08-10T06:40:07.162Z,89.67
2022-08-10T06:43:07.002Z,89.04
2022-08-10T06:46:12.507Z,90.20
2022-08-10T06:49:09.585Z,89.82
2022-08-10T06:52:07.405Z,90.04
2022-08-10T06:55:05.286Z,90.09
2022-08-10T06:58:02.268Z,88.85
2022-08-10T07:01:05.689Z,87.92
2022-08-10T07:04:10.604Z,86.80
2022-08-10T07:07:07.976Z,87.65
2022-08-10T07:10:06.133Z,85.98
2022-08-10T07:13:03.316Z,85.30
2022-08-10T07:16:00.894Z,84.79
2022-08-10T07:18:58.767Z,84.82
2022-08-10T07:21:57.912Z,83.45
2022-08-10T07:24:56.302Z,83.09
2022-08-10T07:28:00.303Z,83.80
2022-08-10T07:30:58.695Z,82.53
2022-08-10T07:33:55.589Z,82.43
2022-08-10T07:36:53.102Z,80.41
2022-08-10T07:40:01.938Z,83.36
2022-08-10T07:43:01.767Z,80.67
2022-08-10T07:45:58.903Z,80.17
2022-08-10T07:49:18.919Z,79.22
2022-08-10T07:52:16.553Z,79.29
2022-08-10T07:55:16.588Z,77.79
2022-08-10T07:58:14.337Z,75.71
2022-08-10T08:01:11.617Z,76.89
2022-08-10T08:04:11.850Z,75.70
2022-08-10T08:07:09.875Z,76.02
2022-08-10T08:10:07.272Z,75.54
2022-08-10T08:13:04.390Z,75.03
2022-08-10T08:16:20.343Z,75.82
2022-08-10T08:19:28.216Z,75.24
2022-08-10T08:24:10.568Z,75.31
2022-08-10T08:25:49.557Z,75.23
2022-08-10T08:28:48.691Z,74.72
2022-08-10T08:32:01.153Z,76.68
2022-08-10T08:35:08.493Z,73.75
2022-08-10T08:38:29.303Z,73.88
2022-08-10T08:41:46.133Z,71.89
2022-08-10T08:45:08.233Z,70.42
2022-08-10T08:48:11.683Z,69.93
2022-08-10T08:52:07.847Z,72.12
2022-08-10T08:54:42.833Z,71.43
2022-08-10T08:58:14.675Z,70.81
2022-08-10T09:01:14.592Z,70.09
2022-08-10T09:04:29.527Z,66.64
2022-08-10T09:08:01.005Z,66.13
2022-08-10T09:11:04.519Z,65.69
2022-08-10T09:14:31.571Z,67.39
2022-08-10T09:17:51.367Z,64.78
2022-08-10T09:20:57.759Z,68.03
2022-08-10T09:24:05.669Z,64.55
2022-08-10T09:27:07.806Z,66.35
2022-08-10T09:30:06.789Z,64.44
2022-08-10T09:36:24.604Z,62.49
2022-08-10T09:36:48.939Z,64.86
2022-08-10T09:40:12.596Z,61.61
2022-08-10T09:43:27.864Z,61.69
2022-08-10T09:46:36.673Z,60.08
2022-08-10T09:49:55.315Z,61.72
2022-08-10T09:53:20.275Z,61.09
2022-08-10T09:56:26.702Z,62.15
2022-08-10T10:00:01.876Z,59.77
2022-08-10T10:03:26.318Z,57.35
2022-08-10T10:06:26.940Z,56.79
2022-08-10T10:09:36.906Z,57.67
2022-08-10T10:12:36.697Z,55.76
2022-08-10T10:15:53.476Z,56.02
2022-08-10T10:19:08.324Z,55.89
2022-08-10T10:22:26.259Z,54.95
2022-08-10T10:25:51.637Z,53.97
2022-08-10T10:29:37.441Z,53.03
2022-08-10T10:32:57.315Z,54.61
2022-08-10T10:35:55.924Z,52.05
2022-08-10T10:38:53.885Z,54.48
2022-08-10T10:42:04.718Z,55.68
2022-08-10T10:45:14.760Z,53.70
2022-08-10T10:48:39.948Z,53.20
2022-08-10T10:52:14.982Z,51.83
2022-08-10T10:56:13.156Z,53.13
2022-08-10T10:59:53.614Z,54.72
2022-08-10T11:02:42.398Z,52.85
2022-08-10T11:06:02.735Z,47.60
2022-08-10T11:09:06.045Z,48.84
2022-08-10T11:12:30.091Z,47.27
2022-08-10T11:15:33.516Z,49.88
2022-08-10T11:18:42.697Z,51.79
2022-08-10T11:22:00.066Z,50.03
2022-08-10T11:25:03.226Z,50.32
2022-08-10T11:28:11.017Z,48.96
2022-08-10T11:31:13.903Z,49.98
2022-08-10T11:34:47.474Z,47.19
2022-08-10T11:38:32.112Z,44.43
2022-08-10T11:42:11.987Z,48.84
2022-08-10T11:45:02.506Z,49.14
2022-08-10T11:48:53.415Z,45.03
2022-08-10T11:51:53.921Z,43.86
2022-08-10T11:54:53.413Z,46.14
2022-08-10T11:57:56.264Z,49.21
2022-08-10T12:01:02.256Z,48.63
2022-08-10T12:04:03.684Z,47.83
2022-08-10T12:07:04.969Z,46.45
2022-08-10T12:10:22.891Z,47.62
2022-08-10T12:13:36.751Z,42.66
2022-08-10T12:16:37.318Z,43.32
2022-08-10T12:20:01.123Z,42.58
2022-08-10T12:23:28.143Z,42.47
2022-08-10T12:26:37.818Z,43.06
2022-08-10T12:30:18.561Z,45.45
2022-08-10T12:34:02.597Z,41.89
2022-08-10T12:37:21.210Z,43.34
2022-08-10T12:40:37.014Z,42.07
2022-08-10T12:44:07.101Z,45.19
2022-08-10T12:47:13.986Z,44.54
2022-08-10T12:50:32.895Z,42.68
2022-08-10T12:54:32.453Z,44.14
2022-08-10T12:57:29.946Z,41.16
2022-08-10T13:00:33.404Z,42.97
2022-08-10T13:04:21.506Z,43.33
2022-08-10T13:06:49.747Z,42.54
2022-08-10T13:09:55.819Z,43.43
2022-08-10T13:12:54.714Z,44.46
2022-08-10T13:15:51.643Z,42.51
2022-08-10T13:18:49.716Z,43.85
2022-08-10T13:21:46.967Z,41.54
2022-08-10T13:24:45.641Z,41.83
2022-08-10T13:28:02.698Z,41.28
2022-08-10T13:31:16.904Z,45.97
2022-08-10T13:34:43.096Z,44.70
2022-08-10T13:37:44.244Z,43.10
2022-08-10T13:40:40.903Z,42.09
2022-08-10T13:43:38.147Z,40.28
2022-08-10T13:46:37.948Z,43.95
2022-08-10T13:49:49.496Z,42.53
2022-08-10T13:52:51.205Z,39.39
2022-08-10T13:55:56.158Z,40.37
2022-08-10T13:58:54.434Z,40.85
2022-08-10T14:01:51.912Z,43.29
2022-08-10T14:04:48.666Z,44.97
2022-08-10T14:08:00.123Z,43.64
2022-08-10T14:11:09.973Z,44.34
2022-08-10T14:14:14.555Z,43.56
2022-08-10T14:17:11.766Z,41.26
2022-08-10T14:20:14.011Z,41.46
2022-08-10T14:23:13.550Z,44.15
2022-08-10T14:26:10.858Z,43.69
2022-08-10T14:29:18.884Z,41.09
2022-08-10T14:32:17.959Z,43.28
2022-08-10T14:36:21.328Z,41.55
2022-08-10T14:38:34.245Z,42.35
2022-08-10T14:42:01.064Z,42.46
2022-08-10T14:44:54.895Z,42.72
2022-08-10T14:47:59.521Z,41.24
2022-08-10T14:50:59.064Z,42.01
2022-08-10T14:53:59.817Z,40.67
2022-08-10T14:56:57.820Z,41.97
2022-08-10T15:00:24.834Z,42.09
2022-08-10T15:03:58.483Z,41.10
2022-08-10T15:07:12.289Z,41.97
2022-08-10T15:10:09.836Z,41.35
2022-08-10T15:13:07.795Z,39.64
2022-08-10T15:16:27.756Z,42.04
2022-08-10T15:20:01.033Z,42.31
2022-08-10T15:22:50.014Z,40.29
2022-08-10T15:25:57.894Z,40.29
2022-08-10T15:29:23.070Z,40.97
2022-08-10T15:32:40.539Z,40.81
2022-08-10T15:35:59.758Z,41.14
2022-08-10T15:38:59.795Z,41.37
2022-08-10T15:42:00.242Z,41.35
2022-08-10T15:44:58.014Z,40.92
2022-08-10T15:48:03.113Z,41.21
2022-08-10T15:51:05.775Z,42.50
2022-08-10T15:54:07.503Z,41.51
2022-08-10T15:57:11.408Z,42.44
2022-08-10T16:00:10.474Z,41.87
2022-08-10T16:03:15.820Z,41.62
2022-08-10T16:06:23.160Z,41.74
2022-08-10T16:10:26.381Z,40.94
2022-08-10T16:12:59.590Z,42.15
2022-08-10T16:16:00.949Z,41.83
2022-08-10T16:18:59.191Z,43.15
2022-08-10T16:22:00.566Z,41.96
2022-08-10T16:24:58.402Z,41.32
2022-08-10T16:28:23.058Z,41.72
2022-08-10T16:31:22.859Z,42.92
2022-08-10T16:34:20.820Z,43.25
2022-08-10T16:37:18.060Z,41.57
2022-08-10T16:40:15.240Z,43.16
2022-08-10T16:43:12.930Z,42.25
2022-08-10T16:46:16.573Z,41.28
2022-08-10T16:49:14.619Z,42.32
2022-08-10T16:52:12.047Z,42.42
2022-08-10T16:55:23.856Z,42.15
2022-08-10T16:58:41.307Z,42.11
2022-08-10T17:01:39.238Z,41.98
2022-08-10T17:04:37.442Z,41.67
2022-08-10T17:07:35.294Z,41.53
2022-08-10T17:10:32.134Z,42.23
2022-08-10T17:13:30.885Z,43.29
2022-08-10T17:16:34.701Z,42.23
2022-08-10T17:19:35.871Z,43.06
2022-08-10T17:22:37.831Z,42.94
2022-08-10T17:25:48.903Z,43.97
2022-08-10T17:28:50.274Z,44.89
2022-08-10T17:31:54.590Z,43.19
2022-08-10T17:34:55.796Z,45.11
2022-08-10T17:38:16.532Z,43.68
2022-08-10T17:41:16.940Z,45.31
2022-08-10T17:44:14.079Z,44.19
2022-08-10T17:47:11.638Z,44.70
2022-08-10T17:50:09.546Z,45.70
2022-08-10T17:53:12.419Z,45.44
2022-08-10T17:56:10.218Z,45.98
2022-08-10T17:59:16.813Z,46.12
2022-08-10T18:02:17.579Z,45.96
2022-08-10T18:05:15.054Z,46.58
2022-08-10T18:08:12.235Z,47.36
2022-08-10T18:11:11.648Z,46.66
2022-08-10T18:14:09.074Z,46.98
2022-08-10T18:17:11.258Z,47.13
2022-08-10T18:20:08.366Z,47.78
2022-08-10T18:23:05.432Z,48.40
2022-08-10T18:26:05.410Z,48.07
2022-08-10T18:29:02.222Z,48.76
2022-08-10T18:32:00.338Z,48.57
2022-08-10T18:34:59.026Z,49.92
2022-08-10T18:37:57.472Z,50.34
2022-08-10T18:40:58.684Z,50.98
2022-08-10T18:44:07.109Z,50.45
2022-08-10T18:47:17.377Z,50.68
2022-08-10T18:50:16.004Z,50.90
2022-08-10T18:53:16.277Z,51.62
2022-08-10T18:56:30.479Z,51.73
2022-08-10T19:00:07.432Z,51.71
2022-08-10T19:03:30.429Z,51.84
2022-08-10T19:06:45.968Z,52.49
2022-08-10T19:09:56.064Z,52.66
2022-08-10T19:13:31.825Z,52.80
2022-08-10T19:16:52.617Z,53.56
2022-08-10T19:20:18.272Z,53.24
2022-08-10T19:23:27.629Z,54.52
2022-08-10T19:26:41.368Z,53.54
2022-08-10T19:30:12.366Z,54.40
2022-08-10T19:33:32.273Z,53.46
2022-08-10T19:37:16.874Z,54.75
2022-08-10T19:40:43.275Z,55.43
2022-08-10T19:44:12.391Z,55.15
2022-08-10T19:47:46.757Z,55.43
2022-08-10T19:50:56.235Z,55.86
2022-08-10T19:53:59.237Z,56.68
2022-08-10T19:57:15.695Z,54.89
2022-08-10T20:00:23.031Z,55.97
2022-08-10T20:03:42.484Z,56.70
2022-08-10T20:07:02.153Z,56.52
2022-08-10T20:10:04.814Z,57.14
2022-08-10T20:13:27.717Z,58.32
2022-08-10T20:16:27.072Z,58.36
2022-08-10T20:19:53.995Z,59.02
2022-08-10T20:22:59.366Z,59.71
2022-08-10T20:26:00.654Z,59.95
2022-08-10T20:29:09.397Z,60.17
2022-08-10T20:32:12.487Z,60.99
2022-08-10T20:35:15.446Z,60.91
2022-08-10T20:38:15.986Z,61.71
2022-08-10T20:41:46.137Z,61.93
2022-08-10T20:44:50.687Z,62.28
2022-08-10T20:47:55.526Z,62.92
2022-08-10T20:51:04.180Z,63.93
2022-08-10T20:54:01.095Z,64.39
2022-08-10T20:57:55.567Z,64.65
2022-08-10T21:00:36.685Z,65.05
2022-08-10T21:04:00.358Z,66.06
2022-08-10T21:07:44.000Z,66.98
2022-08-10T21:10:52.506Z,66.71
2022-08-10T21:14:14.567Z,66.55
2022-08-10T21:20:59.435Z,68.04
2022-08-10T21:23:57.892Z,68.45
2022-08-10T21:26:55.059Z,68.46
2022-08-10T21:30:11.025Z,68.46
2022-08-10T21:33:12.636Z,68.02
2022-08-10T21:36:15.181Z,67.60
2022-08-10T21:39:42.018Z,67.81
2022-08-10T21:43:11.178Z,68.52
2022-08-10T21:46:54.847Z,69.35
2022-08-10T21:50:17.625Z,69.34
2022-08-10T21:53:48.314Z,69.85
2022-08-10T21:57:19.966Z,69.10
2022-08-10T22:00:35.792Z,68.95
2022-08-10T22:03:54.093Z,69.62
2022-08-10T22:07:09.606Z,69.44
2022-08-10T22:10:27.467Z,69.17
2022-08-10T22:13:42.752Z,69.12
2022-08-10T22:17:02.051Z,70.00
2022-08-10T22:20:24.834Z,69.61
2022-08-10T22:24:16.739Z,69.64
2022-08-10T22:27:47.587Z,70.48
2022-08-10T22:31:24.472Z,67.98
2022-08-10T22:31:31.009Z,70.87
2022-08-10T22:34:57.157Z,72.80
2022-08-10T22:38:38.150Z,72.29
2022-08-10T22:42:15.516Z,72.59
2022-08-10T22:45:33.453Z,73.24
2022-08-10T22:48:50.740Z,73.68
2022-08-10T22:52:13.711Z,73.43
2022-08-10T22:55:36.832Z,73.68
2022-08-10T22:58:40.302Z,73.40
2022-08-10T23:02:08.441Z,73.07
2022-08-10T23:05:14.622Z,72.85
2022-08-10T23:08:29.951Z,74.26
2022-08-10T23:11:33.415Z,74.60
2022-08-10T23:14:36.175Z,75.16
2022-08-10T23:18:01.674Z,75.37
2022-08-10T23:20:59.132Z,75.69
2022-08-10T23:23:57.600Z,75.97
2022-08-10T23:26:54.503Z,76.48
2022-08-10T23:30:03.866Z,77.21
2022-08-10T23:33:08.846Z,76.53
2022-08-10T23:36:33.595Z,76.72
2022-08-10T23:39:37.456Z,77.28
2022-08-10T23:42:38.727Z,77.46
2022-08-10T23:45:53.298Z,77.09
2022-08-10T23:48:52.993Z,78.84
2022-08-10T23:51:55.544Z,77.52
2022-08-10T23:54:58.420Z,75.49
2022-08-10T23:57:58.430Z,74.02
